Time;durP1;ratioP1;P1;durP2;ratioP2;P2;SDS_P1;SDS_P2;PMS_P1;PMS_P2;Temp;Humidity;BMP_temperature;BMP_pressure;BME280_temperature;BME280_humidity;BME280_pressure;Samples;Min_cycle;Max_cycle;Signal;HPM_P1;HPM_P2
2020/12/03 00:01:19;;;;;;;;;;;21.80;79.90;;;;;;1826580;77;20241;-77
2020/12/03 00:03:51;;;;;;;;;;;21.80;79.60;;;;;;1833532;77;20252;-77
2020/12/03 00:06:22;;;;;;;;;;;21.70;79.30;;;;;;1832165;77;20257;-78
2020/12/03 00:08:53;;;;;;;;;;;21.70;78.90;;;;;;1824162;77;20277;-77
2020/12/03 00:11:25;;;;;;;;;;;21.70;79.70;;;;;;1829972;77;20240;-78
2020/12/03 00:13:55;;;;;;;;;;;21.70;79.00;;;;;;1834892;77;20264;-78
2020/12/03 00:16:26;;;;;;;;;;;21.70;79.20;;;;;;1837361;77;20215;-78
2020/12/03 00:18:56;;;;;;;;;;;21.80;79.30;;;;;;1839397;77;20215;-77
2020/12/03 00:21:27;;;;;;;;;;;21.80;79.20;;;;;;1822793;77;20268;-77
2020/12/03 00:23:57;;;;;;;;;;;21.80;79.10;;;;;;1825385;77;20255;-78
2020/12/03 00:26:28;;;;;;;;;;;21.80;79.20;;;;;;1823143;77;20527;-78
2020/12/03 00:28:59;;;;;;;;;;;21.80;79.60;;;;;;1833009;77;20350;-78
2020/12/03 00:31:28;;;;;;;;;;;21.80;79.60;;;;;;1839898;77;20395;-77
2020/12/03 00:34:09;;;;;;;;;;;21.90;79.10;;;;;;1836789;77;20243;-69
2020/12/03 00:36:33;;;;;;;;;;;21.90;79.00;;;;;;1834367;77;20227;-70
2020/12/03 00:39:04;;;;;;;;;;;21.90;79.00;;;;;;1830157;77;20657;-69
2020/12/03 00:41:34;;;;;;;;;;;21.90;79.00;;;;;;1830762;77;20233;-70
2020/12/03 00:44:05;;;;;;;;;;;21.90;78.90;;;;;;1828918;77;20139;-69
2020/12/03 00:46:35;;;;;;;;;;;21.90;78.90;;;;;;1842764;77;20216;-69
2020/12/03 00:49:08;;;;;;;;;;;21.90;79.20;;;;;;1839047;77;20227;-67
2020/12/03 00:51:38;;;;;;;;;;;22.00;78.60;;;;;;1856971;75;20152;-69
2020/12/03 00:54:08;;;;;;;;;;;22.00;78.50;;;;;;1879641;75;20166;-70
2020/12/03 00:56:38;;;;;;;;;;;22.10;78.40;;;;;;1872473;75;20161;-69
2020/12/03 00:59:08;;;;;;;;;;;22.10;78.40;;;;;;1888469;75;20205;-70
2020/12/03 01:01:41;;;;;;;;;;;22.20;78.50;;;;;;1873341;75;20186;-69
2020/12/03 01:04:11;;;;;;;;;;;22.20;78.30;;;;;;1866541;75;20250;-70
2020/12/03 01:06:44;;;;;;;;;;;22.20;77.80;;;;;;1859899;75;20266;-71
2020/12/03 01:09:13;;;;;;;;;;;22.30;77.60;;;;;;1859148;75;20849;-70
2020/12/03 01:11:43;;;;;;;;;;;22.30;77.40;;;;;;1829097;76;20180;-70
2020/12/03 01:14:12;;;;;;;;;;;22.40;77.40;;;;;;1815235;78;20196;-70
2020/12/03 01:16:43;;;;;;;;;;;22.40;77.30;;;;;;1812128;78;20188;-70
2020/12/03 01:19:13;;;;;;;;;;;22.50;76.90;;;;;;1825670;78;20223;-72
2020/12/03 01:21:43;;;;;;;;;;;22.50;76.80;;;;;;1814030;77;20227;-70
2020/12/03 01:24:12;;;;;;;;;;;22.60;76.70;;;;;;1819443;77;20230;-71
2020/12/03 01:26:42;;;;;;;;;;;22.70;76.30;;;;;;1814335;77;20163;-70
2020/12/03 01:29:15;;;;;;;;;;;22.70;76.30;;;;;;1836843;76;20169;-70
2020/12/03 01:31:46;;;;;;;;;;;22.70;75.80;;;;;;1839217;77;20193;-72
2020/12/03 01:34:21;;;;;;;;;;;22.70;75.50;;;;;;1832194;77;20213;-71
2020/12/03 01:36:52;;;;;;;;;;;22.70;75.50;;;;;;1822068;77;20290;-71
2020/12/03 01:39:22;;;;;;;;;;;22.80;75.60;;;;;;1836179;76;20223;-71
2020/12/03 01:41:52;;;;;;;;;;;22.80;75.30;;;;;;1833721;76;20430;-69
2020/12/03 01:44:23;;;;;;;;;;;22.90;75.50;;;;;;1837798;76;20512;-71
2020/12/03 01:46:57;;;;;;;;;;;22.90;75.40;;;;;;1825416;77;20183;-70
2020/12/03 01:49:29;;;;;;;;;;;22.90;75.40;;;;;;1830869;77;20459;-72
2020/12/03 01:51:59;;;;;;;;;;;23.00;75.20;;;;;;1813993;77;20197;-69
2020/12/03 01:54:29;;;;;;;;;;;23.00;75.00;;;;;;1805104;78;20272;-72
2020/12/03 01:57:00;;;;;;;;;;;23.00;74.40;;;;;;1810916;77;20233;-74
2020/12/03 01:59:31;;;;;;;;;;;23.00;74.50;;;;;;1816061;78;20570;-72
2020/12/03 02:02:02;;;;;;;;;;;23.10;74.50;;;;;;1811660;77;20280;-69
2020/12/03 02:04:32;;;;;;;;;;;23.20;74.30;;;;;;1827353;76;20186;-71
2020/12/03 02:07:03;;;;;;;;;;;23.20;74.10;;;;;;1830754;76;20492;-72
2020/12/03 02:09:34;;;;;;;;;;;23.30;73.90;;;;;;1820184;78;20240;-72
2020/12/03 02:12:04;;;;;;;;;;;23.30;73.80;;;;;;1827502;76;20203;-70
2020/12/03 02:14:34;;;;;;;;;;;23.40;73.80;;;;;;1829140;78;20167;-71
2020/12/03 02:17:04;;;;;;;;;;;23.40;73.40;;;;;;1831006;76;20221;-72
2020/12/03 02:19:34;;;;;;;;;;;23.50;73.10;;;;;;1838453;76;20188;-71
2020/12/03 02:22:05;;;;;;;;;;;23.50;72.90;;;;;;1837227;76;20204;-71
2020/12/03 02:24:36;;;;;;;;;;;23.50;72.80;;;;;;1821241;78;20463;-72
2020/12/03 02:27:07;;;;;;;;;;;23.60;72.70;;;;;;1827443;77;20604;-72
2020/12/03 02:29:56;;;;;;;;;;;23.60;72.50;;;;;;1806428;77;20154;-71
2020/12/03 02:32:29;;;;;;;;;;;23.70;72.60;;;;;;1839842;77;20517;-71
2020/12/03 02:35:16;;;;;;;;;;;23.70;72.20;;;;;;1795271;77;20238;-72
2020/12/03 02:37:46;;;;;;;;;;;23.80;72.40;;;;;;1831305;77;20169;-72
2020/12/03 02:40:27;;;;;;;;;;;;;;;;;;;;;
2020/12/03 02:42:59;;;;;;;;;;;23.90;71.90;;;;;;1820796;77;20164;-71
2020/12/03 02:45:32;;;;;;;;;;;24.10;69.30;;;;;;1854347;75;20242;-70
2020/12/03 02:48:09;;;;;;;;;;;24.20;69.10;;;;;;1830011;77;20205;-70
2020/12/03 02:50:47;;;;;;;;;;;24.30;67.70;;;;;;1846821;75;20181;-70
2020/12/03 02:53:16;;;;;;;;;;;24.40;66.90;;;;;;1849222;77;20196;-70
2020/12/03 02:55:49;;;;;;;;;;;24.50;67.30;;;;;;1840272;77;20135;-72
2020/12/03 02:58:18;;;;;;;;;;;24.60;68.00;;;;;;1809964;77;20270;-72
2020/12/03 03:00:48;;;;;;;;;;;24.60;67.40;;;;;;1833690;78;20237;-72
2020/12/03 03:03:27;;;;;;;;;;;24.80;66.60;;;;;;1853005;75;20311;-71
2020/12/03 03:05:58;;;;;;;;;;;24.80;66.10;;;;;;1865514;75;20274;-72
2020/12/03 03:08:37;;;;;;;;;;;24.90;65.60;;;;;;1867677;75;20468;-70
2020/12/03 03:11:46;;;;;;;;;;;25.00;65.20;;;;;;1822328;78;20595;-73
2020/12/03 03:14:43;;;;;;;;;;;25.10;65.20;;;;;;1802883;78;20153;-72
2020/12/03 03:17:26;;;;;;;;;;;25.20;63.90;;;;;;1826064;78;20172;-71
2020/12/03 03:20:13;;;;;;;;;;;25.30;63.40;;;;;;1826538;78;20281;-72
2020/12/03 03:22:43;;;;;;;;;;;25.40;63.40;;;;;;1831995;78;20202;-72
2020/12/03 03:25:28;;;;;;;;;;;25.50;62.00;;;;;;1807772;78;20174;-72
2020/12/03 03:28:06;;;;;;;;;;;25.50;62.80;;;;;;1829450;78;20242;-72
2020/12/03 03:30:45;;;;;;;;;;;25.60;61.70;;;;;;1824577;78;20320;-72
2020/12/03 03:33:13;;;;;;;;;;;25.70;61.60;;;;;;1800326;78;20530;-71
2020/12/03 03:35:47;;;;;;;;;;;25.70;61.40;;;;;;1821514;78;20214;-71
2020/12/03 03:38:16;;;;;;;;;;;25.80;61.10;;;;;;1799661;78;20218;-71
2020/12/03 03:40:46;;;;;;;;;;;25.90;60.60;;;;;;1821306;78;20289;-71
2020/12/03 03:43:15;;;;;;;;;;;25.90;60.40;;;;;;1831721;77;20221;-71
2020/12/03 03:45:45;;;;;;;;;;;26.00;60.70;;;;;;1839063;77;20166;-72
2020/12/03 03:48:15;;;;;;;;;;;26.10;61.30;;;;;;1845609;76;20191;-70
2020/12/03 03:51:01;;;;;;;;;;;;;;;;;;;;;
2020/12/03 03:53:34;;;;;;;;;;;26.30;60.20;;;;;;1715096;83;20214;-73
2020/12/03 03:56:14;;;;;;;;;;;26.50;59.80;;;;;;1575926;90;20280;-72
2020/12/03 03:58:46;;;;;;;;;;;26.50;59.00;;;;;;1675230;80;20267;-73
2020/12/03 04:01:21;;;;;;;;;;;26.60;59.70;;;;;;1755906;80;20265;-73
2020/12/03 04:03:55;;;;;;;;;;;26.80;59.10;;;;;;1740316;80;20218;-73
2020/12/03 04:06:28;;;;;;;;;;;26.80;59.00;;;;;;1723175;82;20282;-72
2020/12/03 04:08:57;;;;;;;;;;;26.90;58.20;;;;;;1735549;81;20314;-70
2020/12/03 04:11:27;;;;;;;;;;;27.00;58.20;;;;;;1717955;82;20524;-71
2020/12/03 04:13:57;;;;;;;;;;;27.00;58.10;;;;;;1758169;81;20812;-71
2020/12/03 04:16:33;;;;;;;;;;;27.10;58.10;;;;;;1755814;81;20774;-74
2020/12/03 04:19:04;;;;;;;;;;;27.20;59.20;;;;;;1736792;81;20305;-73
2020/12/03 04:21:35;;;;;;;;;;;27.20;58.70;;;;;;1722800;83;20289;-72
2020/12/03 04:24:05;;;;;;;;;;;27.30;58.00;;;;;;1755542;81;20296;-72
2020/12/03 04:26:38;;;;;;;;;;;27.30;57.90;;;;;;1738470;82;20339;-73
2020/12/03 04:29:07;;;;;;;;;;;27.40;57.30;;;;;;1722159;83;20298;-73
2020/12/03 04:31:46;;;;;;;;;;;27.40;57.70;;;;;;1750746;80;20234;-72
2020/12/03 04:34:16;;;;;;;;;;;27.50;57.60;;;;;;1831869;77;20117;-71
2020/12/03 04:36:46;;;;;;;;;;;27.50;57.70;;;;;;1831074;76;20630;-71
2020/12/03 04:39:16;;;;;;;;;;;27.70;57.70;;;;;;1819390;77;20460;-72
2020/12/03 04:41:46;;;;;;;;;;;27.70;57.30;;;;;;1810188;76;20165;-71
2020/12/03 04:44:17;;;;;;;;;;;27.70;56.70;;;;;;1774149;79;20332;-71
2020/12/03 04:46:48;;;;;;;;;;;27.70;57.80;;;;;;1777873;79;20648;-71
2020/12/03 04:49:26;;;;;;;;;;;27.80;58.20;;;;;;1777834;79;20460;-71
2020/12/03 04:51:53;;;;;;;;;;;27.90;56.90;;;;;;1789361;79;20268;-72
2020/12/03 04:54:24;;;;;;;;;;;27.90;57.20;;;;;;1779973;79;20272;-70
2020/12/03 04:56:56;;;;;;;;;;;28.00;57.90;;;;;;1782309;79;20202;-71
2020/12/03 04:59:34;;;;;;;;;;;28.00;58.20;;;;;;1784113;79;20167;-71
2020/12/03 05:02:02;;;;;;;;;;;28.10;55.90;;;;;;1785488;79;20225;-71
2020/12/03 05:04:33;;;;;;;;;;;28.20;56.60;;;;;;1782386;79;20178;-71
2020/12/03 05:07:04;;;;;;;;;;;28.20;55.60;;;;;;1786035;79;20207;-70
2020/12/03 05:09:36;;;;;;;;;;;28.30;56.30;;;;;;1784752;79;20186;-71
2020/12/03 05:12:08;;;;;;;;;;;28.30;55.90;;;;;;1783735;79;20253;-72
2020/12/03 05:14:39;;;;;;;;;;;28.30;55.00;;;;;;1774289;79;20269;-73
2020/12/03 05:17:10;;;;;;;;;;;28.40;55.30;;;;;;1741671;79;20164;-73
2020/12/03 05:19:41;;;;;;;;;;;28.40;56.10;;;;;;1774156;79;20830;-72
2020/12/03 05:22:12;;;;;;;;;;;28.50;56.20;;;;;;1749293;78;20187;-71
2020/12/03 05:24:42;;;;;;;;;;;28.60;56.10;;;;;;1750346;79;20444;-72
2020/12/03 05:27:13;;;;;;;;;;;28.60;55.00;;;;;;1743491;80;20471;-73
2020/12/03 05:29:43;;;;;;;;;;;28.60;55.30;;;;;;1747413;81;20270;-73
2020/12/03 05:32:13;;;;;;;;;;;28.70;54.90;;;;;;1738671;80;20148;-74
2020/12/03 05:34:43;;;;;;;;;;;28.70;54.80;;;;;;1758389;79;20279;-72
2020/12/03 05:37:14;;;;;;;;;;;28.70;54.20;;;;;;1718434;81;20302;-74
2020/12/03 05:39:45;;;;;;;;;;;28.70;54.70;;;;;;1708347;83;20209;-72
2020/12/03 05:42:16;;;;;;;;;;;28.80;54.30;;;;;;1726132;80;20183;-72
2020/12/03 05:44:49;;;;;;;;;;;28.80;54.80;;;;;;1778029;78;20410;-70
2020/12/03 05:47:21;;;;;;;;;;;28.90;54.70;;;;;;1809198;79;20239;-72
2020/12/03 05:49:52;;;;;;;;;;;28.90;54.90;;;;;;1782931;79;20198;-70
2020/12/03 05:52:23;;;;;;;;;;;28.90;54.80;;;;;;1778794;80;20201;-72
2020/12/03 05:54:55;;;;;;;;;;;28.90;54.40;;;;;;1781643;80;20163;-71
2020/12/03 05:57:26;;;;;;;;;;;29.00;53.60;;;;;;1811589;78;20266;-73
2020/12/03 05:59:57;;;;;;;;;;;29.00;54.10;;;;;;1818580;78;20249;-72
2020/12/03 06:02:28;;;;;;;;;;;29.10;53.70;;;;;;1802382;78;20298;-72
2020/12/03 06:04:59;;;;;;;;;;;29.10;52.60;;;;;;1790074;79;20324;-72
2020/12/03 06:07:30;;;;;;;;;;;29.00;52.90;;;;;;1821095;78;20512;-72
2020/12/03 06:10:01;;;;;;;;;;;29.00;52.00;;;;;;1822218;79;20193;-71
2020/12/03 06:12:32;;;;;;;;;;;29.00;54.00;;;;;;1782564;79;20597;-71
2020/12/03 06:15:03;;;;;;;;;;;29.10;53.40;;;;;;1821107;78;20258;-72
2020/12/03 06:17:34;;;;;;;;;;;29.10;52.10;;;;;;1821843;78;20438;-72
2020/12/03 06:20:05;;;;;;;;;;;29.10;53.30;;;;;;1823099;77;20226;-72
2020/12/03 06:22:36;;;;;;;;;;;29.10;52.40;;;;;;1821494;77;20192;-72
2020/12/03 06:25:07;;;;;;;;;;;29.10;51.90;;;;;;1824008;77;20449;-72
2020/12/03 06:27:41;;;;;;;;;;;29.00;54.60;;;;;;1822095;79;20278;-72
2020/12/03 06:30:11;;;;;;;;;;;29.00;53.40;;;;;;1820894;79;20154;-73
2020/12/03 06:32:43;;;;;;;;;;;29.00;54.30;;;;;;1820331;77;20179;-72
2020/12/03 06:35:14;;;;;;;;;;;28.90;53.80;;;;;;1826104;78;20203;-73
2020/12/03 06:37:49;;;;;;;;;;;29.00;52.50;;;;;;1826640;78;20197;-73
2020/12/03 06:40:23;;;;;;;;;;;29.00;52.60;;;;;;1825567;77;20292;-73
2020/12/03 06:42:54;;;;;;;;;;;29.10;52.80;;;;;;1822279;77;20504;-74
2020/12/03 06:45:25;;;;;;;;;;;29.10;52.60;;;;;;1772672;80;20170;-73
2020/12/03 06:47:56;;;;;;;;;;;29.10;52.20;;;;;;1781579;78;20203;-74
2020/12/03 06:50:27;;;;;;;;;;;29.20;53.60;;;;;;1825418;77;20226;-73
2020/12/03 06:53:00;;;;;;;;;;;29.20;52.90;;;;;;1822437;78;20447;-72
2020/12/03 06:55:31;;;;;;;;;;;29.20;53.10;;;;;;1823902;78;20242;-74
2020/12/03 06:58:02;;;;;;;;;;;29.30;52.80;;;;;;1823782;77;20244;-74
2020/12/03 07:00:33;;;;;;;;;;;29.30;51.80;;;;;;1823597;77;20193;-73
2020/12/03 07:03:04;;;;;;;;;;;29.30;51.80;;;;;;1809998;78;20164;-72
2020/12/03 07:05:38;;;;;;;;;;;29.20;51.80;;;;;;1827674;77;20202;-73
2020/12/03 07:08:09;;;;;;;;;;;29.20;52.10;;;;;;1828239;77;20191;-73
2020/12/03 07:10:40;;;;;;;;;;;29.10;52.50;;;;;;1840684;77;20207;-72
2020/12/03 07:13:11;;;;;;;;;;;29.10;53.00;;;;;;1828462;77;20181;-72
2020/12/03 07:15:46;;;;;;;;;;;29.10;52.40;;;;;;1833160;77;20207;-73
2020/12/03 07:18:17;;;;;;;;;;;29.10;53.00;;;;;;1819521;77;20519;-72
2020/12/03 07:20:48;;;;;;;;;;;29.10;52.70;;;;;;1821310;77;20462;-73
2020/12/03 07:23:19;;;;;;;;;;;29.10;52.90;;;;;;1822309;78;20482;-73
2020/12/03 07:25:56;;;;;;;;;;;29.10;52.90;;;;;;1828311;77;20197;-72
2020/12/03 07:28:27;;;;;;;;;;;29.10;52.80;;;;;;1824643;77;20162;-72
2020/12/03 07:30:58;;;;;;;;;;;29.10;53.40;;;;;;1828994;77;20214;-72
2020/12/03 07:33:29;;;;;;;;;;;29.10;53.20;;;;;;1825861;77;20183;-72
2020/12/03 07:36:01;;;;;;;;;;;29.10;53.20;;;;;;1829226;77;20236;-72
2020/12/03 07:38:32;;;;;;;;;;;29.20;52.30;;;;;;1823825;77;20159;-72
2020/12/03 07:41:02;;;;;;;;;;;29.10;53.10;;;;;;1827305;77;20195;-72
2020/12/03 07:43:33;;;;;;;;;;;29.10;53.00;;;;;;1830427;76;20540;-71
2020/12/03 07:46:04;;;;;;;;;;;29.10;53.40;;;;;;1826482;77;20211;-71
2020/12/03 07:48:35;;;;;;;;;;;29.10;53.00;;;;;;1829463;77;20463;-72
2020/12/03 07:51:06;;;;;;;;;;;29.10;52.30;;;;;;1831013;77;20436;-73
2020/12/03 07:53:39;;;;;;;;;;;29.10;52.90;;;;;;1828218;77;20213;-73
2020/12/03 07:56:09;;;;;;;;;;;29.10;52.60;;;;;;1821361;77;20162;-72
2020/12/03 07:58:42;;;;;;;;;;;29.10;52.70;;;;;;1817043;77;20285;-73
2020/12/03 08:01:12;;;;;;;;;;;29.10;52.00;;;;;;1822774;77;20213;-72
2020/12/03 08:03:47;;;;;;;;;;;29.00;52.20;;;;;;1821807;77;20275;-72
2020/12/03 08:06:16;;;;;;;;;;;29.00;52.30;;;;;;1817873;77;20197;-72
2020/12/03 08:08:48;;;;;;;;;;;28.90;52.20;;;;;;1817063;79;20183;-71
2020/12/03 08:11:19;;;;;;;;;;;28.80;52.50;;;;;;1819303;77;20185;-71
2020/12/03 08:13:50;;;;;;;;;;;28.80;53.00;;;;;;1820418;77;20214;-72
2020/12/03 08:16:22;;;;;;;;;;;28.80;53.40;;;;;;1818994;77;20252;-72
2020/12/03 08:18:55;;;;;;;;;;;28.80;52.80;;;;;;1818192;77;20290;-72
2020/12/03 08:21:27;;;;;;;;;;;28.80;52.70;;;;;;1779115;79;20245;-71
2020/12/03 08:23:56;;;;;;;;;;;28.80;53.20;;;;;;1806454;78;20168;-73
2020/12/03 08:26:28;;;;;;;;;;;28.80;53.00;;;;;;1797693;78;20189;-71
2020/12/03 08:28:58;;;;;;;;;;;28.70;53.10;;;;;;1800977;78;20410;-72
2020/12/03 08:31:29;;;;;;;;;;;28.80;52.30;;;;;;1804196;78;20261;-71
2020/12/03 08:34:04;;;;;;;;;;;28.80;52.20;;;;;;1794349;79;20161;-73
2020/12/03 08:36:33;;;;;;;;;;;28.80;52.80;;;;;;1763994;80;20320;-73
2020/12/03 08:39:03;;;;;;;;;;;28.80;53.10;;;;;;1755729;80;20466;-72
2020/12/03 08:41:33;;;;;;;;;;;28.70;53.00;;;;;;1822469;77;20227;-74
2020/12/03 08:44:04;;;;;;;;;;;28.60;53.20;;;;;;1824901;75;20269;-73
2020/12/03 08:46:35;;;;;;;;;;;28.60;53.30;;;;;;1820645;76;20162;-73
2020/12/03 08:49:05;;;;;;;;;;;28.60;53.30;;;;;;1817296;77;20166;-72
2020/12/03 08:51:37;;;;;;;;;;;28.50;53.50;;;;;;1825898;77;20232;-73
2020/12/03 08:54:07;;;;;;;;;;;28.50;52.70;;;;;;1821700;77;20233;-72
2020/12/03 08:56:37;;;;;;;;;;;28.50;53.00;;;;;;1819867;77;20250;-73
2020/12/03 08:59:08;;;;;;;;;;;28.50;52.90;;;;;;1818961;77;20241;-73
2020/12/03 09:01:40;;;;;;;;;;;28.40;52.50;;;;;;1817269;78;20259;-73
2020/12/03 09:04:10;;;;;;;;;;;28.40;53.00;;;;;;1815953;77;20277;-72
2020/12/03 09:06:45;;;;;;;;;;;28.40;53.30;;;;;;1817450;78;20263;-71
2020/12/03 09:09:13;;;;;;;;;;;28.30;53.60;;;;;;1818199;77;20179;-73
2020/12/03 09:11:43;;;;;;;;;;;28.30;54.20;;;;;;1816221;78;20150;-71
2020/12/03 09:14:12;;;;;;;;;;;28.30;53.70;;;;;;1819804;77;20288;-71
2020/12/03 09:17:01;;;;;;;;;;;28.20;53.50;;;;;;1816247;79;20231;-73
2020/12/03 09:19:32;;;;;;;;;;;28.20;53.50;;;;;;1798773;77;20206;-73
2020/12/03 09:22:02;;;;;;;;;;;28.20;53.50;;;;;;1780648;79;20272;-72
2020/12/03 09:24:32;;;;;;;;;;;28.10;53.30;;;;;;1792605;79;20235;-69
2020/12/03 09:27:04;;;;;;;;;;;28.10;53.80;;;;;;1822258;77;20176;-72
2020/12/03 09:29:34;;;;;;;;;;;28.10;53.90;;;;;;1811191;78;20207;-72
2020/12/03 09:32:06;;;;;;;;;;;28.10;53.50;;;;;;1808242;77;20163;-69
2020/12/03 09:34:37;;;;;;;;;;;28.10;53.90;;;;;;1810756;77;20351;-70
2020/12/03 09:37:10;;;;;;;;;;;28.10;53.70;;;;;;1802277;77;20372;-71
2020/12/03 09:39:40;;;;;;;;;;;28.20;53.60;;;;;;1801719;77;20160;-70
2020/12/03 09:42:11;;;;;;;;;;;28.20;53.60;;;;;;1809359;79;20227;-69
2020/12/03 09:44:43;;;;;;;;;;;28.30;54.00;;;;;;1811205;78;20261;-70
2020/12/03 09:47:14;;;;;;;;;;;28.20;54.10;;;;;;1804135;79;20257;-71
2020/12/03 09:49:45;;;;;;;;;;;28.30;54.20;;;;;;1807462;77;20181;-72
2020/12/03 09:52:15;;;;;;;;;;;28.30;54.00;;;;;;1807226;79;20568;-72
2020/12/03 09:54:45;;;;;;;;;;;28.20;53.90;;;;;;1803943;77;20160;-71
2020/12/03 09:57:18;;;;;;;;;;;28.20;54.20;;;;;;1801340;79;20327;-71
2020/12/03 09:59:49;;;;;;;;;;;28.10;54.50;;;;;;1805670;78;20160;-71
2020/12/03 10:02:24;;;;;;;;;;;28.10;54.70;;;;;;1804104;77;20207;-86
2020/12/03 10:04:52;;;;;;;;;;;28.10;55.00;;;;;;1794019;79;20285;-84
2020/12/03 10:07:24;;;;;;;;;;;28.10;55.00;;;;;;1813881;77;20205;-85
2020/12/03 10:09:55;;;;;;;;;;;28.00;55.00;;;;;;1799058;78;20182;-85
2020/12/03 10:12:26;;;;;;;;;;;28.00;54.90;;;;;;1802480;78;20170;-83
2020/12/03 10:15:00;;;;;;;;;;;28.00;55.10;;;;;;1803456;77;20288;-83
2020/12/03 10:17:31;;;;;;;;;;;27.90;55.10;;;;;;1791001;79;20243;-82
2020/12/03 10:20:07;;;;;;;;;;;27.90;55.10;;;;;;1827778;78;20175;-81
2020/12/03 10:22:38;;;;;;;;;;;27.70;55.20;;;;;;1829090;78;20454;-82
2020/12/03 10:25:09;;;;;;;;;;;27.80;55.40;;;;;;1828807;77;20206;-84
2020/12/03 10:27:48;;;;;;;;;;;27.70;55.60;;;;;;1771916;79;20123;-80
2020/12/03 10:30:18;;;;;;;;;;;27.60;55.70;;;;;;1836262;77;20224;-84
2020/12/03 10:32:49;;;;;;;;;;;27.60;55.80;;;;;;1834592;77;20184;-82
2020/12/03 10:35:19;;;;;;;;;;;27.60;56.10;;;;;;1815106;78;20194;-83
2020/12/03 10:37:50;;;;;;;;;;;27.50;56.10;;;;;;1837214;77;20197;-82
2020/12/03 10:40:21;;;;;;;;;;;27.50;56.30;;;;;;1814838;77;20273;-85
2020/12/03 10:42:52;;;;;;;;;;;27.40;56.40;;;;;;1820766;78;20200;-83
2020/12/03 10:45:25;;;;;;;;;;;27.40;56.50;;;;;;1820831;78;20221;-83
2020/12/03 10:47:56;;;;;;;;;;;27.40;56.80;;;;;;1823958;77;20360;-83
2020/12/03 10:50:27;;;;;;;;;;;27.30;56.80;;;;;;1830545;77;20171;-83
2020/12/03 10:53:04;;;;;;;;;;;27.30;56.90;;;;;;1768751;80;20447;-81
2020/12/03 10:55:43;;;;;;;;;;;27.30;57.10;;;;;;1803862;78;20261;-83
2020/12/03 10:58:19;;;;;;;;;;;27.20;57.20;;;;;;1819374;78;20136;-84
2020/12/03 11:00:48;;;;;;;;;;;27.20;57.30;;;;;;1811267;78;20207;-84
2020/12/03 11:03:25;;;;;;;;;;;27.20;57.40;;;;;;1826051;77;20218;-82
2020/12/03 11:05:54;;;;;;;;;;;27.20;57.60;;;;;;1818671;77;20184;-83
2020/12/03 11:08:25;;;;;;;;;;;27.10;57.70;;;;;;1821557;77;20164;-84
2020/12/03 11:10:55;;;;;;;;;;;27.10;57.90;;;;;;1830199;76;20174;-82
2020/12/03 11:13:32;;;;;;;;;;;27.10;58.20;;;;;;1850314;77;20678;-83
2020/12/03 11:16:34;;;;;;;;;;;;;;;;;;;;;
2020/12/03 11:18:48;;;;;;;;;;;27.00;58.30;;;;;;1820430;75;20216;-83
2020/12/03 11:21:18;;;;;;;;;;;27.00;58.60;;;;;;1853769;77;20205;-82
2020/12/03 11:23:50;;;;;;;;;;;26.90;58.60;;;;;;1835141;77;20183;-82
2020/12/03 11:26:20;;;;;;;;;;;26.90;59.10;;;;;;1850462;77;20282;-83
2020/12/03 11:28:51;;;;;;;;;;;26.80;58.80;;;;;;1805875;77;20266;-82
2020/12/03 11:31:26;;;;;;;;;;;26.80;59.00;;;;;;1793215;78;20201;-82
2020/12/03 11:34:05;;;;;;;;;;;26.80;59.00;;;;;;1843528;76;20268;-82
2020/12/03 11:36:37;;;;;;;;;;;26.80;59.20;;;;;;1822574;77;20247;-82
2020/12/03 11:39:07;;;;;;;;;;;26.70;59.30;;;;;;1817320;77;20205;-84
2020/12/03 11:44:46;;;;;;;;;;;26.70;59.60;;;;;;1829013;78;20255;-82
2020/12/03 11:49:49;;;;;;;;;;;26.60;59.80;;;;;;1829110;77;20249;-83
2020/12/03 11:52:21;;;;;;;;;;;26.50;59.80;;;;;;1833086;76;20264;-82
2020/12/03 11:54:53;;;;;;;;;;;26.50;59.90;;;;;;1837710;76;20666;-83
2020/12/03 11:57:22;;;;;;;;;;;26.50;60.00;;;;;;1835795;76;20591;-83
2020/12/03 11:59:52;;;;;;;;;;;26.40;60.00;;;;;;1834390;76;20231;-83
2020/12/03 12:02:36;;;;;;;;;;;26.40;60.20;;;;;;1834444;78;20685;-85
2020/12/03 12:07:58;;;;;;;;;;;26.40;60.30;;;;;;1819282;77;20204;-84
2020/12/03 12:11:46;;;;;;;;;;;26.30;60.40;;;;;;1837324;78;20202;-84
2020/12/03 12:13:16;;;;;;;;;;;26.30;60.50;;;;;;1834568;77;20391;-82
2020/12/03 12:15:48;;;;;;;;;;;26.30;60.60;;;;;;1835784;78;20220;-82
2020/12/03 12:18:18;;;;;;;;;;;26.30;60.60;;;;;;1832068;78;20404;-82
2020/12/03 12:20:49;;;;;;;;;;;26.20;60.60;;;;;;1845369;77;20178;-81
2020/12/03 12:23:26;;;;;;;;;;;26.20;60.80;;;;;;1827522;77;20438;-83
2020/12/03 12:25:58;;;;;;;;;;;26.20;60.90;;;;;;1843710;76;20193;-82
2020/12/03 12:28:29;;;;;;;;;;;26.20;61.00;;;;;;1825228;77;20178;-83
2020/12/03 12:31:01;;;;;;;;;;;26.10;61.10;;;;;;1843340;76;20410;-83
2020/12/03 12:33:38;;;;;;;;;;;26.10;61.30;;;;;;1852867;77;20228;-81
2020/12/03 12:36:22;;;;;;;;;;;26.10;61.60;;;;;;1862075;76;20249;-83
2020/12/03 12:38:54;;;;;;;;;;;26.10;61.70;;;;;;1854445;77;20197;-82
2020/12/03 12:41:29;;;;;;;;;;;26.10;61.90;;;;;;1858284;75;20519;-82
2020/12/03 12:44:04;;;;;;;;;;;26.00;61.90;;;;;;1864512;75;20759;-82
2020/12/03 12:46:38;;;;;;;;;;;26.00;62.10;;;;;;1865116;77;20146;-84
2020/12/03 12:49:09;;;;;;;;;;;26.00;62.40;;;;;;1833729;77;20202;-83
2020/12/03 12:51:42;;;;;;;;;;;25.90;62.50;;;;;;1866465;75;20178;-84
2020/12/03 12:54:12;;;;;;;;;;;25.90;62.80;;;;;;1862958;75;20205;-86
2020/12/03 12:56:51;;;;;;;;;;;25.80;63.00;;;;;;1864342;77;20204;-85
2020/12/03 12:59:23;;;;;;;;;;;25.80;63.20;;;;;;1869361;75;20173;-84
2020/12/03 13:01:56;;;;;;;;;;;25.80;63.70;;;;;;1864879;75;20166;-83
2020/12/03 13:04:30;;;;;;;;;;;25.70;63.90;;;;;;1845669;77;20209;-84
2020/12/03 13:07:21;;;;;;;;;;;25.70;64.10;;;;;;1845638;75;20244;-85
2020/12/03 13:10:03;;;;;;;;;;;25.60;64.10;;;;;;1854087;75;20242;-83
2020/12/03 13:12:43;;;;;;;;;;;25.60;64.60;;;;;;1853505;75;20196;-83
2020/12/03 13:15:16;;;;;;;;;;;25.60;64.80;;;;;;1853232;76;20201;-84
2020/12/03 13:18:13;;;;;;;;;;;25.50;64.70;;;;;;1842228;76;20217;-81
2020/12/03 13:20:39;;;;;;;;;;;25.50;65.00;;;;;;1840149;76;20218;-82
2020/12/03 13:23:19;;;;;;;;;;;25.50;65.10;;;;;;1832375;78;20354;-83
2020/12/03 13:25:51;;;;;;;;;;;25.50;65.40;;;;;;1844617;77;20457;-83
2020/12/03 13:28:23;;;;;;;;;;;25.50;65.40;;;;;;1849586;76;20436;-84
2020/12/03 13:30:53;;;;;;;;;;;25.40;65.60;;;;;;1848336;76;20158;-84
2020/12/03 13:33:24;;;;;;;;;;;25.40;65.80;;;;;;1854670;76;20248;-84
2020/12/03 13:35:56;;;;;;;;;;;25.40;65.90;;;;;;1847756;75;20213;-79
2020/12/03 13:38:26;;;;;;;;;;;25.40;66.10;;;;;;1833171;77;20186;-82
2020/12/03 13:40:57;;;;;;;;;;;25.30;66.20;;;;;;1851591;76;20148;-79
2020/12/03 13:43:27;;;;;;;;;;;25.30;66.20;;;;;;1847684;76;20216;-79
2020/12/03 13:45:58;;;;;;;;;;;25.30;66.40;;;;;;1848768;77;20255;-81
2020/12/03 13:48:28;;;;;;;;;;;25.20;66.50;;;;;;1848394;76;20645;-79
2020/12/03 13:50:57;;;;;;;;;;;25.20;66.50;;;;;;1851531;76;20236;-81
2020/12/03 13:53:30;;;;;;;;;;;25.20;66.60;;;;;;1852198;77;20193;-79
2020/12/03 13:56:01;;;;;;;;;;;25.10;66.80;;;;;;1849778;77;20221;-80
2020/12/03 13:58:31;;;;;;;;;;;25.10;66.90;;;;;;1851456;77;20186;-82
2020/12/03 14:01:01;;;;;;;;;;;25.10;67.80;;;;;;1821136;77;20280;-83
2020/12/03 14:03:33;;;;;;;;;;;25.10;67.10;;;;;;1837586;77;20201;-81
2020/12/03 14:06:06;;;;;;;;;;;25.10;67.10;;;;;;1831187;78;20250;-82
2020/12/03 14:08:36;;;;;;;;;;;25.00;67.30;;;;;;1833895;77;20246;-81
2020/12/03 14:11:06;;;;;;;;;;;25.00;67.50;;;;;;1818394;78;20259;-81
2020/12/03 14:13:36;;;;;;;;;;;25.00;67.50;;;;;;1804502;79;20261;-81
2020/12/03 14:16:07;;;;;;;;;;;24.90;67.70;;;;;;1815104;77;20315;-82
2020/12/03 14:18:48;;;;;;;;;;;24.90;67.90;;;;;;1849781;75;20606;-79
2020/12/03 14:21:18;;;;;;;;;;;24.80;67.80;;;;;;1852537;76;20344;-79
2020/12/03 14:23:52;;;;;;;;;;;24.80;68.10;;;;;;1857330;77;20587;-79
2020/12/03 14:26:19;;;;;;;;;;;24.80;68.10;;;;;;1852719;76;20150;-80
2020/12/03 14:28:49;;;;;;;;;;;24.80;68.20;;;;;;1852752;76;20441;-80
2020/12/03 14:31:18;;;;;;;;;;;24.80;68.30;;;;;;1860637;76;20232;-80
2020/12/03 14:33:49;;;;;;;;;;;24.70;68.30;;;;;;1843456;77;20607;-79
2020/12/03 14:36:19;;;;;;;;;;;24.70;68.50;;;;;;1847944;77;20178;-79
2020/12/03 14:38:49;;;;;;;;;;;24.70;68.80;;;;;;1841996;76;20262;-79
2020/12/03 14:41:20;;;;;;;;;;;24.70;69.00;;;;;;1850642;75;20294;-79
2020/12/03 14:43:49;;;;;;;;;;;24.60;68.90;;;;;;1843937;76;20270;-80
2020/12/03 14:46:19;;;;;;;;;;;24.60;69.20;;;;;;1847774;77;20189;-81
2020/12/03 14:48:52;;;;;;;;;;;24.50;69.20;;;;;;1854758;76;20224;-80
2020/12/03 14:54:27;;;;;;;;;;;24.50;69.60;;;;;;1788601;79;20227;-80
2020/12/03 14:56:59;;;;;;;;;;;24.50;69.90;;;;;;1790038;79;20497;-80
2020/12/03 14:59:35;;;;;;;;;;;24.40;69.90;;;;;;1780413;79;20279;-80
2020/12/03 15:05:08;;;;;;;;;;;24.30;70.30;;;;;;1661338;84;20240;-80